Terminal Aerodrome Forecast
Issued by NWS Blacksburg, VA

Home | Current Version | Previous Version | Text Only | Print | Product List | Glossary On
Versions: 1 2 3 4 5 6 7 8 9 10 11 12 13 14
000
FTUS41 KRNK 250540
TAFLYH
TAF
KLYH 250540Z 2506/2606 21005KT P6SM SCT060 BKN120
     FM251300 VRB04KT P6SM SCT025 OVC060
     FM251500 15006KT P6SM -SHRA OVC025
     FM251900 19012KT 3SM SHRA OVC018
     FM252300 24010KT P6SM SCT020 BKN110
     FM260200 27010G17KT P6SM SKC=

USA.gov is the U.S. government's official web portal to all federal, state and local government web resources and services.